createdAt,value
2018-02-15T00:01:33.695Z,3.35
2018-02-15T00:04:01.971Z,3.34
2018-02-15T00:06:30.267Z,3.36
2018-02-15T00:08:58.849Z,3.42
2018-02-15T00:11:27.160Z,3.47
2018-02-15T00:13:55.421Z,3.41
2018-02-15T00:16:23.730Z,3.42
2018-02-15T00:18:52.008Z,3.43
2018-02-15T00:21:20.294Z,3.31
2018-02-15T00:23:48.589Z,3.41
2018-02-15T00:26:16.850Z,3.47
2018-02-15T00:28:45.134Z,3.47
2018-02-15T00:31:13.780Z,3.50
2018-02-15T00:33:42.059Z,3.53
2018-02-15T00:36:10.371Z,3.56
2018-02-15T00:38:38.682Z,3.56
2018-02-15T00:41:06.956Z,3.53
2018-02-15T00:43:35.232Z,3.53
2018-02-15T00:46:03.531Z,3.53
2018-02-15T00:48:31.811Z,3.59
2018-02-15T00:51:00.115Z,3.61
2018-02-15T00:53:28.424Z,3.69
2018-02-15T00:55:56.716Z,3.75
2018-02-15T00:58:25.328Z,3.63
2018-02-15T01:00:53.618Z,3.61
2018-02-15T01:03:21.908Z,3.59
2018-02-15T01:05:50.217Z,3.60
2018-02-15T01:08:18.584Z,3.62
2018-02-15T01:10:46.912Z,3.58
2018-02-15T01:13:15.208Z,3.59
2018-02-15T01:15:43.565Z,3.61
2018-02-15T01:18:11.869Z,3.69
2018-02-15T01:20:40.147Z,3.70
2018-02-15T01:23:09.478Z,3.68
2018-02-15T01:25:37.724Z,3.68
2018-02-15T01:28:06.029Z,3.60
2018-02-15T01:30:34.328Z,3.54
2018-02-15T01:33:02.628Z,3.39
2018-02-15T01:35:30.908Z,3.37
2018-02-15T01:37:59.183Z,3.34
2018-02-15T01:40:27.498Z,3.22
2018-02-15T01:42:55.751Z,3.23
2018-02-15T01:45:24.073Z,3.28
2018-02-15T01:47:52.353Z,3.27
2018-02-15T01:50:20.665Z,3.26
2018-02-15T01:52:48.936Z,3.32
2018-02-15T01:55:17.229Z,3.51
2018-02-15T01:57:45.519Z,3.57
2018-02-15T02:00:13.796Z,3.69
2018-02-15T02:02:42.089Z,3.80
2018-02-15T02:05:10.365Z,3.79
2018-02-15T02:07:38.693Z,3.78
2018-02-15T02:10:06.964Z,3.71
2018-02-15T02:12:35.255Z,3.67
2018-02-15T02:15:03.614Z,3.67
2018-02-15T02:17:31.910Z,3.61
2018-02-15T02:20:00.226Z,3.57
2018-02-15T02:22:28.582Z,3.80
2018-02-15T02:24:56.888Z,3.89
2018-02-15T02:27:25.143Z,3.77
2018-02-15T02:29:53.463Z,3.77
2018-02-15T02:32:21.730Z,3.71
2018-02-15T02:34:50.012Z,3.72
2018-02-15T02:37:18.280Z,3.81
2018-02-15T02:39:46.559Z,3.94
2018-02-15T02:42:14.838Z,4.03
2018-02-15T02:44:43.156Z,3.94
2018-02-15T02:47:11.452Z,3.94
2018-02-15T02:49:39.711Z,3.92
2018-02-15T02:52:08.017Z,3.86
2018-02-15T02:54:36.268Z,3.85
2018-02-15T02:57:05.107Z,3.75
2018-02-15T02:59:33.392Z,3.84
2018-02-15T03:02:01.693Z,3.80
2018-02-15T03:04:29.987Z,3.85
2018-02-15T03:06:58.259Z,3.87
2018-02-15T03:09:26.557Z,3.94
2018-02-15T03:11:54.811Z,4.03
2018-02-15T03:14:23.107Z,4.00
2018-02-15T03:16:51.379Z,4.03
2018-02-15T03:19:19.743Z,3.97
2018-02-15T03:21:48.007Z,3.89
2018-02-15T03:24:16.278Z,3.98
2018-02-15T03:26:44.563Z,4.07
2018-02-15T03:29:12.835Z,4.14
2018-02-15T03:31:41.208Z,4.02
2018-02-15T03:34:09.440Z,4.08
2018-02-15T03:36:37.754Z,4.01
2018-02-15T03:39:06.044Z,3.92
2018-02-15T03:41:34.365Z,3.86
2018-02-15T03:44:02.624Z,3.96
2018-02-15T03:46:30.963Z,4.05
2018-02-15T03:48:59.210Z,4.08
2018-02-15T03:51:27.560Z,4.06
2018-02-15T03:53:55.906Z,4.02
2018-02-15T03:56:24.179Z,4.01
2018-02-15T03:58:52.486Z,4.06
2018-02-15T04:01:20.765Z,4.08
2018-02-15T04:03:49.071Z,4.12
2018-02-15T04:06:17.347Z,4.17
2018-02-15T04:08:45.660Z,4.23
2018-02-15T04:11:13.945Z,4.28
2018-02-15T04:13:42.213Z,4.29
2018-02-15T04:16:10.507Z,4.34
2018-02-15T04:18:38.798Z,4.37
2018-02-15T04:21:07.078Z,4.37
2018-02-15T04:23:35.348Z,4.33
2018-02-15T04:26:03.624Z,4.19
2018-02-15T04:28:31.898Z,4.30
2018-02-15T04:31:00.227Z,4.33
2018-02-15T04:33:28.469Z,4.35
2018-02-15T04:35:56.764Z,4.36
2018-02-15T04:38:25.071Z,4.45
2018-02-15T04:40:53.363Z,4.51
2018-02-15T04:43:21.685Z,4.53
2018-02-15T04:45:49.972Z,4.32
2018-02-15T04:48:18.248Z,4.32
2018-02-15T04:50:46.563Z,4.21
2018-02-15T04:53:14.848Z,4.24
2018-02-15T04:55:43.184Z,4.32
2018-02-15T04:58:11.478Z,4.44
2018-02-15T05:00:39.758Z,4.28
2018-02-15T05:03:08.040Z,4.29
2018-02-15T05:05:36.307Z,4.36
2018-02-15T05:08:05.306Z,4.41
2018-02-15T05:10:33.584Z,4.43
2018-02-15T05:13:01.859Z,4.42
2018-02-15T05:15:30.141Z,4.34
2018-02-15T05:17:58.410Z,4.31
2018-02-15T05:20:26.684Z,4.35
2018-02-15T05:22:54.983Z,4.29
2018-02-15T05:25:23.287Z,4.36
2018-02-15T05:27:51.573Z,4.38
2018-02-15T05:30:19.924Z,4.39
2018-02-15T05:32:48.207Z,4.15
2018-02-15T05:35:16.480Z,4.22
2018-02-15T05:37:44.752Z,4.26
2018-02-15T05:40:13.035Z,4.31
2018-02-15T05:42:41.310Z,4.36
2018-02-15T05:45:09.588Z,4.18
2018-02-15T05:47:37.847Z,4.20
2018-02-15T05:50:06.459Z,4.28
2018-02-15T05:52:34.786Z,4.24
2018-02-15T05:55:03.075Z,4.03
2018-02-15T05:57:31.442Z,4.06
2018-02-15T05:59:59.824Z,4.03
2018-02-15T06:02:28.130Z,3.91
2018-02-15T06:04:56.388Z,3.78
2018-02-15T06:07:24.692Z,3.92
2018-02-15T06:09:52.956Z,3.91
2018-02-15T06:12:21.239Z,4.00
2018-02-15T06:14:49.493Z,4.15
2018-02-15T06:17:17.803Z,4.29
2018-02-15T06:19:46.107Z,4.43
2018-02-15T06:22:14.390Z,4.45
2018-02-15T06:24:42.687Z,4.59
2018-02-15T06:27:10.935Z,4.61
2018-02-15T06:29:39.243Z,4.39
2018-02-15T06:32:07.527Z,4.02
2018-02-15T06:34:35.850Z,4.04
2018-02-15T06:37:04.124Z,4.11
2018-02-15T06:39:32.448Z,4.27
2018-02-15T06:42:00.752Z,4.37
2018-02-15T06:44:29.013Z,4.37
2018-02-15T06:46:57.306Z,4.21
2018-02-15T06:49:25.608Z,4.36
2018-02-15T06:51:53.867Z,4.37
2018-02-15T06:54:22.180Z,4.41
2018-02-15T06:56:50.474Z,4.37
2018-02-15T06:59:18.761Z,4.45
2018-02-15T07:01:47.039Z,4.45
2018-02-15T07:04:15.343Z,4.49
2018-02-15T07:06:44.290Z,4.34
2018-02-15T07:09:12.590Z,4.39
2018-02-15T07:11:40.871Z,4.39
2018-02-15T07:14:10.006Z,4.45
2018-02-15T07:16:38.958Z,4.48
2018-02-15T07:19:07.232Z,4.58
2018-02-15T07:21:35.522Z,4.68
2018-02-15T07:24:04.838Z,4.51
2018-02-15T07:26:33.147Z,4.53
2018-02-15T07:29:01.443Z,4.59
2018-02-15T07:31:29.729Z,4.69
2018-02-15T07:33:58.047Z,4.62
2018-02-15T07:36:26.386Z,4.56
2018-02-15T07:38:54.599Z,4.75
2018-02-15T07:41:22.911Z,4.84
2018-02-15T07:43:51.180Z,4.98
2018-02-15T07:46:19.447Z,4.96
2018-02-15T07:48:47.733Z,4.84
2018-02-15T07:51:16.015Z,4.55
2018-02-15T07:53:44.474Z,4.65
2018-02-15T07:56:12.753Z,4.59
2018-02-15T07:58:41.073Z,4.69
2018-02-15T08:01:09.348Z,4.69
2018-02-15T08:03:37.668Z,4.71
2018-02-15T08:06:06.118Z,4.41
2018-02-15T08:08:34.378Z,4.43
2018-02-15T08:11:02.700Z,4.56
2018-02-15T08:13:31.008Z,4.42
2018-02-15T08:15:59.271Z,4.43
2018-02-15T08:18:28.495Z,4.61
2018-02-15T08:20:56.779Z,4.70
2018-02-15T08:23:25.124Z,4.99
2018-02-15T08:25:53.435Z,5.08
2018-02-15T08:28:21.731Z,5.06
2018-02-15T08:30:50.031Z,5.21
2018-02-15T08:33:18.310Z,5.12
2018-02-15T08:35:46.608Z,5.06
2018-02-15T08:38:14.892Z,5.02
2018-02-15T08:40:43.217Z,4.91
2018-02-15T08:43:11.568Z,4.91
2018-02-15T08:45:39.827Z,5.03
2018-02-15T08:48:08.120Z,4.99
2018-02-15T08:50:36.399Z,4.90
2018-02-15T08:53:04.749Z,4.94
2018-02-15T08:55:33.008Z,5.12
2018-02-15T08:58:01.317Z,4.89
2018-02-15T09:00:29.601Z,5.16
2018-02-15T09:02:57.967Z,5.15
2018-02-15T09:05:26.225Z,4.96
2018-02-15T09:07:54.551Z,4.99
2018-02-15T09:10:22.866Z,5.01
2018-02-15T09:12:51.181Z,5.07
2018-02-15T09:15:19.426Z,5.01
2018-02-15T09:17:47.946Z,5.15
2018-02-15T09:20:16.796Z,5.06
2018-02-15T09:22:45.054Z,5.32
2018-02-15T09:25:13.396Z,5.39
2018-02-15T09:27:41.704Z,5.43
2018-02-15T09:30:10.036Z,5.66
2018-02-15T09:32:39.034Z,5.72
2018-02-15T09:35:08.010Z,5.65
2018-02-15T09:37:36.268Z,5.57
2018-02-15T09:40:05.720Z,5.74
2018-02-15T09:42:33.994Z,5.69
2018-02-15T09:45:03.054Z,5.68
2018-02-15T09:47:31.308Z,5.83
2018-02-15T09:49:59.580Z,5.84
2018-02-15T09:52:27.878Z,5.81
2018-02-15T09:54:56.130Z,5.90
2018-02-15T09:57:24.486Z,5.92
2018-02-15T09:59:52.748Z,5.81
2018-02-15T10:02:21.079Z,5.92
2018-02-15T10:04:49.355Z,6.07
2018-02-15T10:07:17.645Z,6.21
2018-02-15T10:09:45.895Z,5.97
2018-02-15T10:12:14.199Z,6.03
2018-02-15T10:14:42.504Z,5.95
2018-02-15T10:17:10.783Z,5.87
2018-02-15T10:19:39.463Z,5.91
2018-02-15T10:22:07.763Z,6.11
2018-02-15T10:24:36.049Z,6.13
2018-02-15T10:27:05.221Z,5.98
2018-02-15T10:29:33.559Z,6.12
2018-02-15T10:32:01.840Z,6.25
2018-02-15T10:34:30.133Z,6.29
2018-02-15T10:36:58.404Z,6.40
2018-02-15T10:39:26.690Z,6.33
2018-02-15T10:41:55.031Z,6.20
2018-02-15T10:44:23.500Z,6.12
2018-02-15T10:46:51.811Z,6.22
2018-02-15T10:49:20.104Z,6.30
2018-02-15T10:51:48.505Z,6.38
2018-02-15T10:54:16.773Z,6.33
2018-02-15T10:56:45.159Z,6.24
2018-02-15T10:59:13.451Z,6.29
2018-02-15T11:01:41.771Z,6.41
2018-02-15T11:04:24.412Z,6.44
2018-02-15T11:06:52.736Z,6.51
2018-02-15T11:09:21.068Z,6.52
2018-02-15T11:11:49.332Z,6.35
2018-02-15T11:14:17.603Z,6.40
2018-02-15T11:16:45.892Z,6.38
2018-02-15T11:19:14.208Z,6.34
2018-02-15T11:21:42.532Z,6.58
2018-02-15T11:24:10.817Z,6.55
2018-02-15T11:26:39.240Z,6.51
2018-02-15T11:29:07.555Z,6.43
2018-02-15T11:31:35.825Z,6.26
2018-02-15T11:34:04.229Z,6.35
2018-02-15T11:36:32.573Z,6.36
2018-02-15T11:39:00.845Z,6.53
2018-02-15T11:41:29.180Z,6.62
2018-02-15T11:43:57.474Z,6.72
2018-02-15T11:46:25.804Z,6.62
2018-02-15T11:48:54.103Z,6.65
2018-02-15T11:51:22.398Z,6.59
2018-02-15T11:53:50.658Z,6.56
2018-02-15T11:56:18.957Z,6.58
2018-02-15T11:58:47.244Z,6.55
2018-02-15T12:01:15.674Z,6.69
2018-02-15T12:03:44.045Z,6.76
2018-02-15T12:06:12.364Z,6.88
2018-02-15T12:08:40.625Z,6.96
2018-02-15T12:11:08.948Z,6.91
2018-02-15T12:13:37.252Z,6.80
2018-02-15T12:16:05.583Z,6.75
2018-02-15T12:18:33.839Z,6.79
2018-02-15T12:21:02.191Z,6.81
2018-02-15T12:23:30.508Z,6.91
2018-02-15T12:25:58.815Z,7.05
2018-02-15T12:28:27.087Z,6.90
2018-02-15T12:30:55.394Z,6.94
2018-02-15T12:33:23.754Z,6.99
2018-02-15T12:35:52.047Z,6.99
2018-02-15T12:38:20.361Z,6.95
2018-02-15T12:40:48.645Z,6.96
2018-02-15T12:43:16.961Z,6.95
2018-02-15T12:45:45.256Z,6.91
2018-02-15T12:48:13.662Z,6.86
2018-02-15T12:50:41.901Z,6.98
2018-02-15T12:53:10.255Z,6.83
2018-02-15T12:55:38.664Z,6.85
2018-02-15T12:58:06.957Z,6.88
2018-02-15T13:00:35.279Z,6.93
2018-02-15T13:03:04.645Z,6.79
2018-02-15T13:05:32.863Z,6.86
2018-02-15T13:08:02.167Z,6.89
2018-02-15T13:10:30.435Z,6.99
2018-02-15T13:13:10.404Z,6.78
2018-02-15T13:15:50.386Z,6.98
2018-02-15T13:18:18.797Z,6.99
2018-02-15T13:20:47.103Z,6.92
2018-02-15T13:23:15.427Z,6.90
2018-02-15T13:25:43.862Z,7.06
2018-02-15T13:31:12.092Z,7.10
2018-02-15T13:33:41.119Z,7.02
2018-02-15T13:36:09.446Z,7.10
2018-02-15T13:38:37.928Z,7.14
2018-02-15T13:41:06.364Z,7.33
2018-02-15T13:43:34.651Z,7.33
2018-02-15T13:46:03.031Z,7.28
2018-02-15T13:48:32.335Z,7.29
2018-02-15T13:51:00.650Z,7.24
2018-02-15T13:53:28.992Z,7.21
2018-02-15T13:55:57.358Z,7.05
2018-02-15T13:58:25.849Z,7.17
2018-02-15T14:00:56.954Z,7.35
2018-02-15T14:03:27.466Z,7.41
2018-02-15T14:05:55.772Z,7.51
2018-02-15T14:08:24.104Z,7.25
2018-02-15T14:10:52.381Z,7.34
2018-02-15T14:13:20.672Z,7.38
2018-02-15T14:15:48.990Z,7.42
2018-02-15T14:18:17.279Z,7.43
2018-02-15T14:20:45.815Z,7.44
2018-02-15T14:23:14.103Z,7.40
2018-02-15T14:25:42.440Z,7.33
2018-02-15T14:28:10.733Z,7.34
2018-02-15T14:30:39.080Z,7.40
2018-02-15T14:33:07.391Z,7.47
2018-02-15T14:35:35.780Z,7.66
2018-02-15T14:38:04.422Z,7.70
2018-02-15T14:40:32.773Z,7.67
2018-02-15T14:43:01.059Z,7.71
2018-02-15T14:45:29.372Z,7.80
2018-02-15T14:47:58.401Z,7.83
2018-02-15T14:50:26.672Z,7.81
2018-02-15T14:52:55.037Z,7.85
2018-02-15T14:55:23.296Z,7.57
2018-02-15T14:57:51.637Z,7.44
2018-02-15T15:00:19.986Z,7.31
2018-02-15T15:02:48.281Z,7.53
2018-02-15T15:05:16.573Z,7.54
2018-02-15T15:07:44.888Z,7.71
2018-02-15T15:10:13.675Z,7.69
2018-02-15T15:12:42.048Z,7.80
2018-02-15T15:15:10.834Z,7.84
2018-02-15T15:17:39.141Z,7.99
2018-02-15T15:20:07.474Z,8.07
2018-02-15T15:22:35.772Z,7.99
2018-02-15T15:25:05.033Z,7.95
2018-02-15T15:27:33.329Z,7.88
2018-02-15T15:30:01.694Z,7.92
2018-02-15T15:32:29.969Z,7.80
2018-02-15T15:34:58.272Z,7.61
2018-02-15T15:37:26.584Z,7.59
2018-02-15T15:39:54.855Z,7.67
2018-02-15T15:42:23.166Z,7.79
2018-02-15T15:44:51.407Z,7.83
2018-02-15T15:47:19.718Z,7.80
2018-02-15T15:49:47.997Z,7.94
2018-02-15T15:52:16.292Z,7.94
2018-02-15T15:54:44.547Z,7.89
2018-02-15T15:57:12.897Z,7.83
2018-02-15T15:59:41.174Z,7.91
2018-02-15T16:02:10.094Z,7.97
2018-02-15T16:04:39.126Z,7.95
2018-02-15T16:07:07.434Z,7.86
2018-02-15T16:09:35.790Z,7.85
2018-02-15T16:12:04.734Z,7.95
2018-02-15T16:14:33.050Z,7.97
2018-02-15T16:17:01.347Z,7.91
2018-02-15T16:19:29.631Z,7.88
2018-02-15T16:21:57.955Z,7.99
2018-02-15T16:24:26.277Z,7.97
2018-02-15T16:26:54.695Z,7.91
2018-02-15T16:29:22.978Z,8.00
2018-02-15T16:31:51.340Z,8.03
2018-02-15T16:34:19.615Z,7.94
2018-02-15T16:36:47.920Z,7.86
2018-02-15T16:39:16.188Z,7.74
2018-02-15T16:41:44.532Z,7.80
2018-02-15T16:44:12.892Z,7.79
2018-02-15T16:46:41.169Z,7.76
2018-02-15T16:49:09.518Z,7.89
2018-02-15T16:51:37.780Z,7.80
2018-02-15T16:54:06.238Z,7.73
2018-02-15T16:56:34.464Z,7.93
2018-02-15T16:59:02.785Z,8.01
2018-02-15T17:01:31.022Z,8.04
2018-02-15T17:03:59.422Z,8.04
2018-02-15T17:06:27.667Z,8.13
2018-02-15T17:08:55.944Z,8.20
2018-02-15T17:11:24.249Z,8.20
2018-02-15T17:13:52.561Z,8.21
2018-02-15T17:16:20.810Z,8.19
2018-02-15T17:18:49.127Z,8.08
2018-02-15T17:21:17.400Z,8.04
2018-02-15T17:23:45.702Z,8.01
2018-02-15T17:26:13.978Z,8.05
2018-02-15T17:28:42.944Z,8.05
2018-02-15T17:31:11.342Z,8.00
2018-02-15T17:33:39.617Z,7.84
2018-02-15T17:36:07.928Z,7.86
2018-02-15T17:38:36.203Z,7.92
2018-02-15T17:41:04.506Z,7.99
2018-02-15T17:43:32.807Z,8.06
2018-02-15T17:46:01.088Z,8.09
2018-02-15T17:48:29.411Z,8.06
2018-02-15T17:50:57.741Z,8.06
2018-02-15T17:53:26.193Z,8.14
2018-02-15T17:55:54.438Z,8.10
2018-02-15T17:58:22.745Z,8.27
2018-02-15T18:00:51.003Z,8.26
2018-02-15T18:03:20.011Z,8.22
2018-02-15T18:05:48.290Z,8.16
2018-02-15T18:08:16.618Z,8.19
2018-02-15T18:10:44.972Z,8.16
2018-02-15T18:13:13.327Z,8.30
2018-02-15T18:15:41.644Z,8.39
2018-02-15T18:18:09.914Z,8.32
2018-02-15T18:20:38.980Z,8.30
2018-02-15T18:23:07.274Z,8.28
2018-02-15T18:25:35.578Z,8.33
2018-02-15T18:28:04.707Z,8.29
2018-02-15T18:30:33.017Z,8.33
2018-02-15T18:33:01.302Z,8.39
2018-02-15T18:35:29.587Z,8.47
2018-02-15T18:37:58.287Z,8.48
2018-02-15T18:40:26.612Z,8.51
2018-02-15T18:42:54.953Z,8.57
2018-02-15T18:45:23.203Z,8.60
2018-02-15T18:47:51.513Z,8.48
2018-02-15T18:50:19.830Z,8.49
2018-02-15T18:52:48.253Z,8.46
2018-02-15T18:55:16.526Z,8.49
2018-02-15T18:57:44.828Z,8.49
2018-02-15T19:00:13.090Z,8.39
2018-02-15T19:02:41.392Z,8.41
2018-02-15T19:05:09.691Z,8.43
2018-02-15T19:07:37.975Z,8.46
2018-02-15T19:10:06.278Z,8.37
2018-02-15T19:12:34.568Z,8.35
2018-02-15T19:15:02.928Z,8.35
2018-02-15T19:17:31.293Z,8.32
2018-02-15T19:20:00.241Z,8.25
2018-02-15T19:22:28.505Z,8.28
2018-02-15T19:24:57.705Z,8.27
2018-02-15T19:27:25.984Z,8.28
2018-02-15T19:29:54.447Z,8.27
2018-02-15T19:32:22.775Z,8.27
2018-02-15T19:34:51.059Z,8.28
2018-02-15T19:37:19.363Z,8.32
2018-02-15T19:39:47.639Z,8.28
2018-02-15T19:42:15.942Z,8.25
2018-02-15T19:44:44.240Z,8.22
2018-02-15T19:47:12.535Z,8.26
2018-02-15T19:49:41.608Z,8.23
2018-02-15T19:52:09.907Z,8.22
2018-02-15T19:54:39.127Z,8.21
2018-02-15T19:57:07.412Z,8.25
2018-02-15T19:59:35.693Z,8.35
2018-02-15T20:02:04.788Z,8.30
2018-02-15T20:04:33.171Z,8.31
2018-02-15T20:07:01.458Z,8.32
2018-02-15T20:09:29.767Z,8.34
2018-02-15T20:11:58.074Z,8.34
2018-02-15T20:14:26.337Z,8.38
2018-02-15T20:16:54.644Z,8.32
2018-02-15T20:19:22.963Z,8.38
2018-02-15T20:21:51.244Z,8.44
2018-02-15T20:24:19.580Z,8.44
2018-02-15T20:26:53.393Z,8.48
2018-02-15T20:29:21.704Z,8.62
2018-02-15T20:31:49.976Z,8.67
2018-02-15T20:34:18.245Z,8.74
2018-02-15T20:36:46.505Z,8.67
2018-02-15T20:39:20.415Z,8.71
2018-02-15T20:41:48.674Z,8.64
2018-02-15T20:44:16.968Z,8.47
2018-02-15T20:46:45.261Z,8.41
2018-02-15T20:49:19.056Z,8.44
2018-02-15T20:51:52.857Z,8.48
2018-02-15T20:54:26.634Z,8.48
2018-02-15T20:56:54.891Z,8.42
2018-02-15T20:59:23.194Z,8.41
2018-02-15T21:01:51.567Z,8.35
2018-02-15T21:04:19.856Z,8.28
2018-02-15T21:06:48.142Z,8.21
2018-02-15T21:09:16.491Z,8.14
2018-02-15T21:11:44.766Z,8.14
2018-02-15T21:14:13.029Z,8.16
2018-02-15T21:16:41.336Z,8.13
2018-02-15T21:19:09.645Z,8.08
2018-02-15T21:21:37.980Z,7.95
2018-02-15T21:24:06.255Z,7.81
2018-02-15T21:26:34.534Z,7.69
2018-02-15T21:29:02.876Z,7.70
2018-02-15T21:31:31.104Z,7.81
2018-02-15T21:33:59.375Z,7.83
2018-02-15T21:36:27.675Z,7.80
2018-02-15T21:38:56.271Z,7.84
2018-02-15T21:41:24.593Z,7.90
2018-02-15T21:43:52.900Z,7.77
2018-02-15T21:46:21.171Z,7.78
2018-02-15T21:48:49.489Z,7.83
2018-02-15T21:51:17.756Z,7.80
2018-02-15T21:53:46.034Z,7.80
2018-02-15T21:56:14.304Z,7.75
2018-02-15T21:58:42.605Z,7.76
2018-02-15T22:01:10.887Z,7.81
2018-02-15T22:03:39.181Z,7.61
2018-02-15T22:06:07.467Z,7.62
2018-02-15T22:08:36.147Z,7.56
2018-02-15T22:11:04.444Z,7.36
2018-02-15T22:13:32.730Z,7.37
2018-02-15T22:16:01.100Z,7.41
2018-02-15T22:18:29.380Z,7.54
2018-02-15T22:20:57.742Z,7.66
2018-02-15T22:23:26.009Z,7.70
2018-02-15T22:25:54.318Z,7.73
2018-02-15T22:28:22.562Z,7.76
2018-02-15T22:30:50.881Z,7.76
2018-02-15T22:33:19.523Z,7.80
2018-02-15T22:35:47.821Z,7.72
2018-02-15T22:38:16.081Z,7.66
2018-02-15T22:40:44.386Z,7.69
2018-02-15T22:43:12.681Z,7.82
2018-02-15T22:45:40.987Z,7.85
2018-02-15T22:48:09.388Z,7.77
2018-02-15T22:50:37.654Z,7.78
2018-02-15T22:53:05.946Z,7.89
2018-02-15T22:55:34.211Z,7.92
2018-02-15T22:58:02.496Z,7.91
2018-02-15T23:00:30.807Z,7.97
2018-02-15T23:02:59.081Z,7.70
2018-02-15T23:05:27.413Z,7.49
2018-02-15T23:07:55.809Z,7.44
2018-02-15T23:10:24.125Z,7.45
2018-02-15T23:12:52.505Z,7.41
2018-02-15T23:15:21.035Z,7.44
2018-02-15T23:17:49.291Z,7.53
2018-02-15T23:20:17.601Z,7.71
2018-02-15T23:22:45.873Z,7.86
2018-02-15T23:25:14.164Z,8.01
2018-02-15T23:27:42.478Z,8.12
2018-02-15T23:30:10.703Z,8.15
2018-02-15T23:32:39.021Z,8.08
2018-02-15T23:35:07.288Z,8.02
2018-02-15T23:37:35.643Z,7.91
2018-02-15T23:40:03.930Z,7.98
2018-02-15T23:42:32.234Z,8.03
2018-02-15T23:45:00.551Z,7.97
2018-02-15T23:47:28.898Z,7.93
2018-02-15T23:49:57.239Z,7.90
2018-02-15T23:52:25.522Z,7.98
2018-02-15T23:54:53.849Z,7.96
2018-02-15T23:57:22.151Z,7.97
2018-02-15T23:59:50.464Z,7.93
